This is the latest recevied weather packets stored in our database for station/object W0WFX-2. If no packets are shown the sender has not sent any weather packets the latest 10 day(s).
| Time | Temp. | Humidity | Pressure | Rain* | Wind** | Luminosity | Snow |
|---|---|---|---|---|---|---|---|
| 1788625401 | 37.78° C | 42% | 1015.5 hPa | 0 mm | - | 577 W/m² | - |
| 1788625101 | 37.78° C | 41% | 1015.5 hPa | 0 mm | - | 629 W/m² | - |
| 1788624800 | 37.22° C | 41% | 1015.3 hPa | 0 mm | - | 546 W/m² | - |
| 1788624499 | 37.22° C | 43% | 1015.3 hPa | 0 mm | - | 566 W/m² | - |
| 1788624222 | 36.67° C | 44% | 1015.2 hPa | 0 mm | - | 575 W/m² | - |
| 1788623888 | 36.67° C | 43% | 1015.2 hPa | 0 mm | - | 574 W/m² | - |
| 1788623587 | 36.11° C | 44% | 1015.3 hPa | 0 mm | - | 540 W/m² | - |
| 1788623281 | 35.56° C | 47% | 1015.5 hPa | 0 mm | - | 541 W/m² | - |
| 1788622977 | 35.56° C | 46% | 1015 hPa | 0 mm | - | 440 W/m² | - |
| 1788622672 | 35° C | 47% | 1015 hPa | 0 mm | - | 453 W/m² | - |
| 1788622368 | 35° C | 45% | 1015.2 hPa | 0 mm | - | 428 W/m² | - |
| 1788622063 | 34.44° C | 47% | 1015.2 hPa | 0 mm | - | 383 W/m² | - |
| 1788621763 | 34.44° C | 46% | 1015.3 hPa | 0 mm | - | 321 W/m² | - |
| 1788621462 | 34.44° C | 46% | 1015.3 hPa | 0 mm | - | 428 W/m² | - |
| 1788621158 | 34.44° C | 50% | 1015.1 hPa | 0 mm | - | 295 W/m² | - |
| 1788620858 | 34.44° C | 49% | 1015 hPa | 0 mm | - | 522 W/m² | - |
| 1788620558 | 34.44° C | 49% | 1014.9 hPa | 0 mm | - | 389 W/m² | - |
| 1788620255 | 33.89° C | 52% | 1015.1 hPa | 0 mm | - | 449 W/m² | - |
| 1788619950 | 32.78° C | 53% | 1014.9 hPa | 0 mm | - | 316 W/m² | - |
| 1788619649 | 31.67° C | 56% | 1015.3 hPa | 0 mm | - | 398 W/m² | - |
| 1788619344 | 30.56° C | 59% | 1014.9 hPa | 0 mm | - | 392 W/m² | - |
| 1788619044 | 30° C | 61% | 1014.9 hPa | 0 mm | - | 158 W/m² | - |
| 1788618743 | 30° C | 62% | 1014.9 hPa | 0 mm | - | 128 W/m² | - |
| 1788618441 | 29.44° C | 64% | 1014.9 hPa | 0 mm | - | 96 W/m² | - |
| 1788618136 | 28.89° C | 65% | 1014.7 hPa | 0 mm | - | 76 W/m² | - |
* Rain latest hour (hover to see other rain measurements)
** Current wind speed in m/s (hover to see current wind gust speed)